College Park, MD

1:26 AM EDT on July 29, 2016 (GMT -0400)
College Park | | Change Station

Elev 194 ft 39.01 °N, 76.93 °W | Updated 2 seconds ago

Overcast
Overcast
74.1 °F
Feels Like 71 °F
N
0.0
Wind Variable Wind from WSW
Gusts 0.0 mph

Today
High -- | Low -- °F
--% Chance of Precip.
Yesterday
High -- | Low -- °F
Precip. -- in
Pressure 29.86 in
Visibility 10.0 miles
Clouds Mostly Cloudy 700 ft
Overcast 1100 ft
Heat Index 71 °F
Dew Point 74 °F
Humidity 98%
Rainfall 0.00 in
Snow Depth Not available.
6:06 AM 8:21 PM
Waning Crescent, 25% visible
METAR KFME 290506Z AUTO 08003KT 10SM BKN007 OVC011 23/22 A2986 RMK AO1
Pressure 29.86 in
Visibility 10.0 miles
Clouds Mostly Cloudy 700 ft
Overcast 1100 ft
Heat Index 71 °F
Dew Point 74 °F
Humidity 98%
Rainfall 0.00 in
Snow Depth Not available.
6:06 AM 8:21 PM
Waning Crescent, 25% visible
METAR KFME 290506Z AUTO 08003KT 10SM BKN007 OVC011 23/22 A2986 RMK AO1

10-Day Weather Forecast

Almanac

Astronomy

Jul. 29, 2016 Rise Set
Actual Time
Civil Twilight
Nautical Twilight
Astronomical Twilight
Moon
Length of Visible Light
Length of Day
Tomorrow will be .
, % of the Moon is Illuminated

Today's Extremes

State Highs State Lows

Community

WunderPhotos

Upload Photos

1,928,297 photos uploaded!

WunderBlog® & News

Nearby

Air Quality

  Air Quality AQ Index Pollutant
Not available.

Snow Depth

Station Depth Elevation

Earthquake Activity

City Distance Mag. Time & Date
Minimum magnitude displayed is 2.5.

Coastal Water Temperatures

Place Temperature

Stations

Nearby Weather Stations

Station Location Temp. Windchill Dew Point Humidity Wind Precip. Elev Updated Type
                   

Watches & Warnings

There are currently no watches in effect.